Swoope, Virginia
Current Conditions -  °F | °C
As of 9:35 AM on Monday 26 Jan 2015 (Local Time) from KW13 Reporting Station
Overcast Overcast  
Wind Chill: 33°   Ceiling: 500
Heat Index: 33°   Visibility: 3mi
Dew Point: 33°   Wind: 0mph
Humidity: 98%   Direction: NA
Pressure: 29.69"   Gusts: NA
Location:  38.16°N, 79.21°W
Report Text: KW13 261435Z AUTO 00000KT 3SM OVC005 01/00 A2969 RMK AO1 P0003 T00070004
Loading
Personal Weather Stations






























Interactive Weather Map New forecast layout! Learn more

10-Day Weather Forecast

Advertisements
Track Severe Weather on mobile